Time;durP1;ratioP1;P1;durP2;ratioP2;P2;SDS_P1;SDS_P2;PMS_P1;PMS_P2;Temp;Humidity;BMP_temperature;BMP_pressure;BME280_temperature;BME280_humidity;BME280_pressure;Samples;Min_cycle;Max_cycle;Signal;HPM_P1;HPM_P2
2022/07/08 00:01:45;;;;;;;9.63;2.35;;;15.10;99.90;;;;;;5083650;28;20036;-71
2022/07/08 00:04:11;;;;;;;11.07;2.10;;;15.10;99.90;;;;;;5070659;28;20040;-71
2022/07/08 00:06:36;;;;;;;11.43;2.33;;;15.10;99.90;;;;;;5053149;28;20046;-71
2022/07/08 00:09:03;;;;;;;13.13;2.50;;;15.10;99.90;;;;;;5067628;28;20044;-71
2022/07/08 00:11:28;;;;;;;14.50;2.83;;;15.10;99.90;;;;;;5065472;28;20084;-71
2022/07/08 00:13:54;;;;;;;7.05;1.88;;;15.10;99.90;;;;;;5068060;28;20040;-71
2022/07/08 00:16:19;;;;;;;9.65;2.25;;;15.10;99.90;;;;;;5082734;28;20144;-71
2022/07/08 00:18:45;;;;;;;9.23;2.20;;;15.10;99.90;;;;;;5071905;28;20066;-71
2022/07/08 00:21:11;;;;;;;8.80;2.15;;;15.10;99.90;;;;;;5058758;28;20051;-71
2022/07/08 00:23:36;;;;;;;10.52;2.55;;;15.10;99.90;;;;;;5078522;28;20055;-71
2022/07/08 00:26:02;;;;;;;8.40;2.22;;;15.10;99.90;;;;;;5084038;28;20045;-71
2022/07/08 00:28:28;;;;;;;13.57;2.65;;;15.10;99.90;;;;;;5073843;28;20047;-71
2022/07/08 00:30:53;;;;;;;8.68;2.20;;;15.00;99.90;;;;;;5068399;28;20136;-71
2022/07/08 00:33:19;;;;;;;10.55;2.13;;;15.00;99.90;;;;;;5055530;28;20033;-71
2022/07/08 00:35:45;;;;;;;12.60;2.38;;;15.00;99.90;;;;;;5072789;28;20036;-71
2022/07/08 00:38:10;;;;;;;7.85;1.95;;;15.00;99.90;;;;;;5078248;28;20044;-71
2022/07/08 00:40:36;;;;;;;8.35;2.17;;;15.00;99.90;;;;;;5069564;28;20048;-71
2022/07/08 00:43:01;;;;;;;13.25;2.15;;;15.10;99.90;;;;;;5054375;28;20044;-71
2022/07/08 00:45:27;;;;;;;9.18;1.90;;;15.00;99.90;;;;;;5080036;28;20048;-71
2022/07/08 00:47:53;;;;;;;11.68;2.92;;;15.00;99.90;;;;;;5081490;28;20071;-70
2022/07/08 00:50:19;;;;;;;8.27;2.25;;;15.00;99.90;;;;;;5080724;28;20400;-71
2022/07/08 00:52:46;;;;;;;12.27;2.15;;;15.00;99.90;;;;;;5076888;28;20033;-71
2022/07/08 00:55:12;;;;;;;8.63;2.20;;;15.00;99.90;;;;;;5063940;28;20044;-71
2022/07/08 00:57:39;;;;;;;10.75;2.55;;;15.00;99.90;;;;;;5081799;28;20052;-71
2022/07/08 01:00:06;;;;;;;11.57;2.08;;;15.00;99.90;;;;;;5087664;28;20116;-71
2022/07/08 01:02:32;;;;;;;9.88;2.55;;;15.00;99.90;;;;;;5086240;28;20048;-71
2022/07/08 01:04:57;;;;;;;13.13;2.50;;;14.90;99.90;;;;;;5073044;28;20049;-71
2022/07/08 01:07:24;;;;;;;14.88;2.50;;;14.90;99.90;;;;;;5067005;28;20101;-71
2022/07/08 01:09:50;;;;;;;14.05;2.53;;;14.90;99.90;;;;;;5091262;28;20093;-71
2022/07/08 01:12:17;;;;;;;12.35;2.65;;;14.90;99.90;;;;;;5073317;28;20048;-71
2022/07/08 01:14:43;;;;;;;16.63;2.88;;;14.90;99.90;;;;;;5066753;28;20062;-71
2022/07/08 01:17:08;;;;;;;12.63;2.20;;;14.80;99.90;;;;;;5065959;28;20040;-71
2022/07/08 01:19:34;;;;;;;12.20;2.83;;;14.80;99.90;;;;;;5083669;28;20040;-71
2022/07/08 01:22:00;;;;;;;8.80;2.10;;;14.80;99.90;;;;;;5061084;28;20059;-71
2022/07/08 01:24:26;;;;;;;8.52;2.28;;;14.80;99.90;;;;;;5065033;28;20143;-71
2022/07/08 01:26:52;;;;;;;9.13;2.17;;;14.80;99.90;;;;;;5070780;28;20083;-71
2022/07/08 01:29:17;;;;;;;8.50;2.38;;;14.70;99.90;;;;;;5083126;28;20040;-71
2022/07/08 01:31:43;;;;;;;8.85;2.20;;;14.70;99.90;;;;;;5061253;28;20047;-71
2022/07/08 01:34:08;;;;;;;9.43;1.90;;;14.70;99.90;;;;;;5071224;28;20036;-71
2022/07/08 01:36:34;;;;;;;8.98;2.60;;;14.60;99.90;;;;;;5072581;28;20044;-68
2022/07/08 01:38:59;;;;;;;8.43;2.40;;;14.60;99.90;;;;;;5065977;28;20083;-68
2022/07/08 01:41:25;;;;;;;10.50;2.40;;;14.60;99.90;;;;;;5080950;28;20051;-68
2022/07/08 01:43:51;;;;;;;8.77;2.30;;;14.50;99.90;;;;;;5072007;28;20044;-69
2022/07/08 01:46:16;;;;;;;10.35;2.20;;;14.50;99.90;;;;;;5068140;28;20417;-68
2022/07/08 01:48:42;;;;;;;11.23;2.25;;;14.50;99.90;;;;;;5084512;28;20058;-69
2022/07/08 01:51:08;;;;;;;9.00;2.25;;;14.40;99.90;;;;;;5084546;28;20055;-69
2022/07/08 01:53:33;;;;;;;10.38;2.42;;;14.40;99.90;;;;;;5079340;28;20089;-69
2022/07/08 01:55:59;;;;;;;9.93;2.50;;;14.40;99.90;;;;;;5079683;28;20155;-71
2022/07/08 01:58:25;;;;;;;8.45;2.30;;;14.40;99.90;;;;;;5061629;28;20043;-69
2022/07/08 02:00:51;;;;;;;8.93;2.40;;;14.40;99.90;;;;;;5072299;28;20040;-69
2022/07/08 02:03:17;;;;;;;7.97;2.35;;;14.40;99.90;;;;;;5078201;28;20594;-69
2022/07/08 02:05:42;;;;;;;13.55;2.30;;;14.30;99.90;;;;;;5073683;28;20395;-71
2022/07/08 02:08:08;;;;;;;7.90;2.30;;;14.30;99.90;;;;;;5062200;28;20083;-71
2022/07/08 02:12:18;;;;;;;8.52;2.30;;;14.30;99.90;;;;;;5076944;28;20155;-71
2022/07/08 02:13:19;;;;;;;15.63;2.95;;;14.20;99.90;;;;;;5068385;28;20082;-71
2022/07/08 02:15:45;;;;;;;10.43;2.53;;;14.20;99.90;;;;;;5071208;28;20065;-71
2022/07/08 02:18:11;;;;;;;9.90;2.45;;;14.20;99.90;;;;;;5050832;28;20049;-71
2022/07/08 02:20:37;;;;;;;10.18;2.92;;;14.20;99.90;;;;;;5071723;28;20047;-70
2022/07/08 02:23:03;;;;;;;9.05;2.47;;;14.10;99.90;;;;;;5069144;28;20040;-71
2022/07/08 02:25:28;;;;;;;11.18;2.70;;;14.20;99.90;;;;;;5054957;28;20033;-71
2022/07/08 02:27:54;;;;;;;10.55;2.38;;;14.10;99.90;;;;;;5072332;28;20188;-71
2022/07/08 02:30:20;;;;;;;11.80;3.15;;;14.10;99.90;;;;;;5072106;28;20051;-71
2022/07/08 02:32:45;;;;;;;12.57;2.60;;;14.10;99.90;;;;;;5070697;28;20044;-71
2022/07/08 02:35:11;;;;;;;9.27;2.70;;;14.00;99.90;;;;;;5061692;28;20090;-71
2022/07/08 02:37:37;;;;;;;9.75;2.80;;;14.00;99.90;;;;;;5086111;28;20040;-71
2022/07/08 02:40:03;;;;;;;13.20;2.88;;;13.90;99.90;;;;;;5069974;28;20096;-71
2022/07/08 02:42:29;;;;;;;9.77;2.53;;;13.90;99.90;;;;;;5084731;28;20177;-71
2022/07/08 02:44:55;;;;;;;12.27;2.97;;;13.80;99.90;;;;;;5086288;28;20522;-70
2022/07/08 02:47:21;;;;;;;8.27;2.92;;;13.80;99.90;;;;;;5083234;28;20032;-71
2022/07/08 02:49:47;;;;;;;9.05;2.50;;;13.70;99.90;;;;;;5086220;28;21055;-71
2022/07/08 02:52:12;;;;;;;10.23;2.72;;;13.70;99.90;;;;;;5067128;28;20197;-71
2022/07/08 02:54:38;;;;;;;9.68;3.03;;;13.70;99.90;;;;;;5061882;28;20684;-70
2022/07/08 02:57:04;;;;;;;14.65;3.28;;;13.70;99.90;;;;;;5061806;28;20067;-71
2022/07/08 02:59:30;;;;;;;10.57;3.03;;;13.70;99.90;;;;;;5067340;28;20032;-71
2022/07/08 03:01:56;;;;;;;10.27;3.00;;;13.70;99.90;;;;;;5058230;28;20035;-71
2022/07/08 03:04:22;;;;;;;9.02;3.10;;;13.60;99.90;;;;;;5088474;28;20066;-71
2022/07/08 03:06:47;;;;;;;13.23;3.47;;;13.60;99.90;;;;;;5079652;28;20096;-71
2022/07/08 03:09:13;;;;;;;8.10;2.95;;;13.60;99.90;;;;;;5077065;28;20143;-71
2022/07/08 03:11:38;;;;;;;11.27;3.25;;;13.60;99.90;;;;;;5063478;28;20062;-70
2022/07/08 03:14:04;;;;;;;12.88;3.25;;;13.60;99.90;;;;;;5079566;28;20040;-71
2022/07/08 03:16:30;;;;;;;11.35;3.30;;;13.60;99.90;;;;;;5075269;28;20123;-70
2022/07/08 03:18:56;;;;;;;8.13;3.03;;;13.60;99.90;;;;;;5053955;28;20145;-71
2022/07/08 03:21:21;;;;;;;10.85;3.20;;;13.60;99.90;;;;;;5050445;28;20044;-71
2022/07/08 03:23:47;;;;;;;12.88;3.20;;;13.60;99.90;;;;;;5070545;28;20044;-71
2022/07/08 03:26:13;;;;;;;16.15;3.95;;;13.60;99.90;;;;;;5055574;28;20113;-69
2022/07/08 03:28:38;;;;;;;9.77;3.38;;;13.60;99.90;;;;;;5066444;28;20052;-69
2022/07/08 03:31:04;;;;;;;10.35;3.00;;;13.60;99.90;;;;;;5059555;28;20046;-69
2022/07/08 03:33:30;;;;;;;13.18;3.63;;;13.60;99.90;;;;;;5071564;28;20041;-69
2022/07/08 03:35:55;;;;;;;15.85;3.88;;;13.60;99.90;;;;;;5067485;28;22039;-69
2022/07/08 03:38:21;;;;;;;9.43;3.47;;;13.60;99.90;;;;;;5063880;28;20136;-69
2022/07/08 03:43:31;;;;;;;10.43;3.30;;;13.60;99.90;;;;;;5073549;28;20052;-69
2022/07/08 03:45:56;;;;;;;9.23;3.47;;;13.60;99.90;;;;;;5050064;28;20051;-69
2022/07/08 03:48:22;;;;;;;10.35;3.55;;;13.60;99.90;;;;;;5051084;28;20415;-69
2022/07/08 03:50:48;;;;;;;10.40;3.17;;;13.60;99.90;;;;;;5058120;28;20380;-69
2022/07/08 03:53:13;;;;;;;12.90;3.58;;;13.60;99.90;;;;;;5076796;28;20048;-69
2022/07/08 03:55:39;;;;;;;11.75;3.22;;;13.70;99.90;;;;;;5067685;28;20491;-69
2022/07/08 03:58:05;;;;;;;9.98;3.13;;;13.60;99.90;;;;;;5067045;28;20055;-69
2022/07/08 04:00:30;;;;;;;12.15;3.00;;;13.70;99.90;;;;;;5067863;28;20600;-69
2022/07/08 04:02:56;;;;;;;8.00;2.60;;;13.70;99.90;;;;;;5071566;28;20076;-69
2022/07/08 04:05:22;;;;;;;11.75;3.20;;;13.70;99.90;;;;;;5090930;28;20040;-69
2022/07/08 04:07:47;;;;;;;11.77;3.15;;;13.70;99.90;;;;;;5073698;28;20047;-69
2022/07/08 04:10:13;;;;;;;11.82;3.25;;;13.70;99.90;;;;;;5053684;28;20041;-68
2022/07/08 04:12:38;;;;;;;16.92;4.03;;;13.70;99.90;;;;;;5072970;28;20399;-71
2022/07/08 04:15:04;;;;;;;14.10;3.47;;;13.70;99.90;;;;;;5081575;28;20044;-69
2022/07/08 04:17:30;;;;;;;14.70;3.28;;;13.70;99.90;;;;;;5086955;28;20048;-69
2022/07/08 04:19:56;;;;;;;10.55;2.60;;;13.70;99.90;;;;;;5072300;28;20043;-69
2022/07/08 04:22:21;;;;;;;11.63;3.20;;;13.70;99.90;;;;;;5054080;28;20480;-69
2022/07/08 04:24:47;;;;;;;8.02;2.85;;;13.70;99.90;;;;;;5074318;28;20037;-69
2022/07/08 04:27:12;;;;;;;9.60;2.97;;;13.80;99.90;;;;;;5071434;28;20484;-69
2022/07/08 04:29:38;;;;;;;13.82;3.50;;;13.80;99.90;;;;;;5071187;28;20036;-69
2022/07/08 04:32:04;;;;;;;10.70;3.08;;;13.80;99.90;;;;;;5075262;28;20037;-69
2022/07/08 04:34:29;;;;;;;10.48;3.42;;;13.80;99.90;;;;;;5060372;28;20109;-69
2022/07/08 04:36:55;;;;;;;13.70;3.00;;;13.80;99.90;;;;;;5070675;28;20044;-69
2022/07/08 04:39:21;;;;;;;11.02;3.38;;;13.80;99.90;;;;;;5077609;28;20041;-70
2022/07/08 04:41:46;;;;;;;11.02;3.00;;;13.80;99.90;;;;;;5074079;28;20063;-69
2022/07/08 04:44:12;;;;;;;11.10;2.80;;;13.80;99.90;;;;;;5082325;28;20487;-69
2022/07/08 04:46:37;;;;;;;11.15;2.90;;;13.90;99.90;;;;;;5070374;28;20143;-69
2022/07/08 04:49:03;;;;;;;12.20;3.13;;;13.80;99.90;;;;;;5073856;28;20074;-69
2022/07/08 04:51:29;;;;;;;7.45;2.75;;;13.90;99.90;;;;;;5075852;28;20044;-69
2022/07/08 04:53:54;;;;;;;9.77;2.58;;;13.90;99.90;;;;;;5086844;28;20463;-69
2022/07/08 04:56:20;;;;;;;10.18;3.17;;;14.00;99.90;;;;;;5058859;28;20043;-69
2022/07/08 04:58:45;;;;;;;10.30;3.08;;;14.10;99.90;;;;;;5074732;28;20047;-69
2022/07/08 05:01:13;;;;;;;9.18;2.90;;;14.10;99.90;;;;;;5072982;28;20040;-69
2022/07/08 05:03:39;;;;;;;9.43;2.72;;;14.20;99.90;;;;;;5081635;28;20044;-69
2022/07/08 05:06:05;;;;;;;11.20;3.15;;;14.20;99.90;;;;;;5067956;28;20048;-69
2022/07/08 05:08:30;;;;;;;9.73;3.15;;;14.30;99.90;;;;;;5063125;28;20047;-70
2022/07/08 05:10:56;;;;;;;12.45;2.97;;;14.40;99.90;;;;;;5069906;28;20145;-69
2022/07/08 05:13:21;;;;;;;19.50;4.28;;;14.40;99.90;;;;;;5055952;28;20067;-69
2022/07/08 05:15:47;;;;;;;10.07;3.13;;;14.50;99.90;;;;;;5079670;28;20111;-69
2022/07/08 05:18:13;;;;;;;10.07;2.58;;;14.60;99.90;;;;;;5059132;28;20044;-69
2022/07/08 05:20:39;;;;;;;8.87;2.60;;;14.60;99.90;;;;;;5067451;28;20135;-69
2022/07/08 05:23:05;;;;;;;10.00;2.67;;;14.70;99.90;;;;;;5080469;28;20119;-70
2022/07/08 05:25:30;;;;;;;8.90;2.60;;;14.80;99.90;;;;;;5058721;28;20120;-69
2022/07/08 05:27:56;;;;;;;10.38;2.53;;;14.80;99.90;;;;;;5052661;28;21219;-70
2022/07/08 05:30:22;;;;;;;9.75;2.50;;;14.80;99.90;;;;;;5056600;28;20507;-70
2022/07/08 05:32:47;;;;;;;12.48;3.03;;;14.90;99.90;;;;;;5063496;28;21647;-71
2022/07/08 05:35:13;;;;;;;10.25;2.83;;;14.90;99.90;;;;;;5075474;28;20390;-70
2022/07/08 05:37:39;;;;;;;10.35;2.90;;;14.90;99.90;;;;;;5070488;28;20071;-71
2022/07/08 05:40:06;;;;;;;12.57;2.57;;;14.90;99.90;;;;;;5081306;28;20055;-71
2022/07/08 05:42:32;;;;;;;12.63;2.90;;;15.00;99.90;;;;;;5062176;28;20566;-70
2022/07/08 05:44:57;;;;;;;12.05;2.80;;;15.10;99.90;;;;;;5069417;28;20115;-70
2022/07/08 05:47:23;;;;;;;9.43;2.42;;;15.10;99.90;;;;;;5067872;28;20052;-69
2022/07/08 05:49:48;;;;;;;9.98;2.85;;;15.10;99.90;;;;;;5070885;28;20039;-70
2022/07/08 05:52:14;;;;;;;11.43;2.88;;;15.10;99.90;;;;;;5071618;28;20171;-70
2022/07/08 05:54:45;;;;;;;10.10;2.95;;;15.20;99.90;;;;;;5060571;28;20083;-70
2022/07/08 05:57:11;;;;;;;13.35;3.13;;;15.20;99.90;;;;;;5058732;28;20093;-70
2022/07/08 05:59:36;;;;;;;13.30;3.13;;;15.30;99.90;;;;;;5070226;28;20478;-71
2022/07/08 06:02:02;;;;;;;16.70;3.15;;;15.40;99.90;;;;;;5065229;28;20044;-71
2022/07/08 06:04:28;;;;;;;13.48;2.72;;;15.50;99.90;;;;;;5065249;28;20067;-71
2022/07/08 06:06:54;;;;;;;12.43;3.22;;;15.50;99.90;;;;;;5074599;28;20047;-71
2022/07/08 06:09:19;;;;;;;11.85;2.85;;;15.70;99.90;;;;;;5080427;28;20040;-71
2022/07/08 06:11:45;;;;;;;13.63;2.90;;;15.70;99.90;;;;;;5070325;28;20044;-71
2022/07/08 06:14:10;;;;;;;11.35;2.75;;;15.80;99.90;;;;;;5077712;28;20743;-71
2022/07/08 06:16:36;;;;;;;11.60;2.78;;;15.80;99.90;;;;;;5050200;28;20040;-71
2022/07/08 06:19:02;;;;;;;13.20;2.70;;;15.90;99.90;;;;;;5063231;28;20051;-71
2022/07/08 06:21:27;;;;;;;14.32;2.63;;;15.90;99.90;;;;;;5087196;28;20032;-71
2022/07/08 06:23:53;;;;;;;11.57;2.50;;;16.00;99.90;;;;;;5060018;28;20091;-71
2022/07/08 06:26:19;;;;;;;9.93;2.90;;;16.10;99.90;;;;;;5074310;28;20032;-71
2022/07/08 06:28:44;;;;;;;12.18;2.58;;;16.10;99.90;;;;;;5067430;28;20981;-71
2022/07/08 06:31:10;;;;;;;13.57;2.80;;;16.20;99.90;;;;;;5077482;28;20119;-71
2022/07/08 06:33:36;;;;;;;10.65;2.20;;;16.20;99.90;;;;;;5069257;28;20128;-71
2022/07/08 06:36:02;;;;;;;13.15;2.55;;;16.20;99.90;;;;;;5072423;28;20051;-72
2022/07/08 06:38:27;;;;;;;10.52;2.70;;;16.40;99.90;;;;;;5062683;28;20051;-71
2022/07/08 06:40:53;;;;;;;9.63;2.30;;;16.50;99.90;;;;;;5074905;28;20104;-71
2022/07/08 06:43:18;;;;;;;10.32;2.53;;;16.50;99.90;;;;;;5066394;28;20067;-71
2022/07/08 06:45:46;;;;;;;10.65;2.90;;;16.50;99.90;;;;;;5075555;28;20076;-71
2022/07/08 06:48:12;;;;;;;12.30;2.53;;;16.60;99.90;;;;;;5083506;28;20044;-71
2022/07/08 06:50:37;;;;;;;11.43;2.60;;;16.60;99.90;;;;;;5082039;28;20048;-71
2022/07/08 06:53:03;;;;;;;13.05;3.00;;;16.60;99.90;;;;;;5069002;28;20177;-71
2022/07/08 06:55:28;;;;;;;10.45;2.85;;;16.60;99.90;;;;;;5071217;28;20056;-71
2022/07/08 06:57:54;;;;;;;14.02;2.45;;;16.60;99.90;;;;;;5070759;28;20032;-71
2022/07/08 07:00:22;;;;;;;12.70;2.60;;;16.60;99.90;;;;;;5077738;28;20054;-70
2022/07/08 07:02:48;;;;;;;11.52;2.58;;;16.60;99.90;;;;;;5063708;28;20453;-73
2022/07/08 07:05:13;;;;;;;9.43;2.45;;;16.60;99.90;;;;;;5078597;28;20044;-70
2022/07/08 07:07:39;;;;;;;11.25;2.58;;;16.50;99.90;;;;;;5073025;28;20383;-73
2022/07/08 07:10:06;;;;;;;13.27;2.72;;;16.50;99.90;;;;;;5065292;28;20040;-73
2022/07/08 07:12:31;;;;;;;15.90;3.53;;;16.50;99.90;;;;;;5072438;28;20051;-73
2022/07/08 07:14:57;;;;;;;15.25;2.90;;;16.50;99.90;;;;;;5062573;28;20052;-73
2022/07/08 07:17:22;;;;;;;15.50;2.85;;;16.50;99.90;;;;;;5080840;28;20134;-75
2022/07/08 07:19:48;;;;;;;10.45;2.90;;;16.60;99.90;;;;;;5066395;28;20093;-73
2022/07/08 07:22:16;;;;;;;10.40;2.85;;;16.60;99.90;;;;;;5071404;28;20040;-73
2022/07/08 07:24:42;;;;;;;11.02;2.90;;;16.60;99.90;;;;;;5069561;28;20040;-73
2022/07/08 07:27:08;;;;;;;12.20;2.90;;;16.60;99.90;;;;;;5077862;28;20438;-74
2022/07/08 07:29:34;;;;;;;9.25;2.63;;;16.70;99.90;;;;;;5067525;28;20045;-73
2022/07/08 07:32:00;;;;;;;11.85;2.50;;;16.70;99.90;;;;;;5051996;28;20045;-72
2022/07/08 07:34:26;;;;;;;13.57;2.67;;;16.80;99.90;;;;;;5069628;28;20110;-72
2022/07/08 07:36:52;;;;;;;12.10;3.17;;;16.80;99.90;;;;;;5077851;28;20372;-73
2022/07/08 07:39:18;;;;;;;11.70;2.90;;;16.80;99.90;;;;;;5061520;28;20044;-75
2022/07/08 07:41:43;;;;;;;13.77;3.20;;;16.90;99.90;;;;;;5077142;28;20399;-76
2022/07/08 07:44:09;;;;;;;13.45;3.15;;;16.90;99.90;;;;;;5062537;28;20052;-76
2022/07/08 07:46:34;;;;;;;13.57;3.03;;;17.00;99.90;;;;;;5091329;28;20051;-74
2022/07/08 07:49:01;;;;;;;13.25;2.88;;;17.00;99.90;;;;;;5073744;28;20109;-74
2022/07/08 07:51:27;;;;;;;11.27;3.03;;;17.00;99.90;;;;;;5087563;28;20414;-73
2022/07/08 07:53:53;;;;;;;12.95;3.10;;;17.00;99.90;;;;;;5079992;28;20032;-73
2022/07/08 07:56:19;;;;;;;12.82;3.28;;;17.00;99.90;;;;;;5065465;28;20102;-74
2022/07/08 07:58:45;;;;;;;12.73;2.92;;;17.00;99.90;;;;;;5080829;28;20584;-73
2022/07/08 08:01:10;;;;;;;12.50;3.28;;;17.10;99.90;;;;;;5084996;28;20111;-73
2022/07/08 08:03:36;;;;;;;11.55;3.05;;;17.10;99.90;;;;;;5077338;28;22006;-73
2022/07/08 08:06:04;;;;;;;9.50;2.85;;;17.10;99.90;;;;;;5061285;28;20036;-74
2022/07/08 08:08:31;;;;;;;13.40;2.80;;;17.10;99.90;;;;;;5069836;28;20048;-74
2022/07/08 08:10:58;;;;;;;13.75;2.70;;;17.10;99.90;;;;;;5091264;28;20402;-72
2022/07/08 08:13:24;;;;;;;12.68;3.40;;;17.10;99.90;;;;;;5062627;28;20048;-73
2022/07/08 08:15:50;;;;;;;14.25;2.40;;;17.10;99.90;;;;;;5070736;28;20131;-74
2022/07/08 08:18:16;;;;;;;10.75;2.60;;;17.20;99.90;;;;;;5069608;28;20050;-73
2022/07/08 08:20:42;;;;;;;12.73;2.95;;;17.20;99.90;;;;;;5066900;28;20051;-73
2022/07/08 08:23:08;;;;;;;9.57;2.55;;;17.30;99.90;;;;;;5080794;28;20055;-74
2022/07/08 08:25:35;;;;;;;13.15;2.88;;;17.40;99.90;;;;;;5075860;28;20059;-74
2022/07/08 08:28:00;;;;;;;7.73;2.43;;;17.40;99.90;;;;;;5082807;28;20051;-74
2022/07/08 08:30:26;;;;;;;15.43;3.67;;;17.40;99.90;;;;;;5079236;28;20655;-74
2022/07/08 08:32:52;;;;;;;9.48;2.72;;;17.50;99.90;;;;;;5080772;28;20113;-76
2022/07/08 08:35:18;;;;;;;9.73;2.60;;;17.50;99.90;;;;;;5091044;28;20514;-74
2022/07/08 08:37:44;;;;;;;11.23;2.95;;;17.50;99.90;;;;;;5090431;28;20047;-75
2022/07/08 08:40:12;;;;;;;11.00;2.20;;;17.50;99.90;;;;;;5084936;28;20044;-74
2022/07/08 08:42:40;;;;;;;11.65;2.70;;;17.50;99.90;;;;;;5078672;28;20056;-74
2022/07/08 08:45:06;;;;;;;9.60;2.45;;;17.60;99.90;;;;;;5079034;28;20122;-73
2022/07/08 08:47:33;;;;;;;11.30;2.88;;;17.60;99.90;;;;;;5087233;28;20036;-73
2022/07/08 08:52:51;;;;;;;12.68;2.70;;;17.70;99.90;;;;;;5059348;28;20052;-73
2022/07/08 08:55:23;;;;;;;11.57;2.42;;;17.70;99.90;;;;;;5081570;28;20039;-73
2022/07/08 08:57:49;;;;;;;13.65;3.05;;;17.70;99.90;;;;;;5083496;28;20047;-73
2022/07/08 09:00:15;;;;;;;12.52;3.10;;;17.70;99.90;;;;;;5072077;28;20046;-73
2022/07/08 09:02:41;;;;;;;10.10;2.50;;;17.70;99.90;;;;;;5085157;28;20040;-73
2022/07/08 09:05:07;;;;;;;11.55;2.92;;;17.80;99.90;;;;;;5088049;28;20047;-73
2022/07/08 09:07:33;;;;;;;9.07;2.80;;;17.90;99.90;;;;;;5069067;28;20048;-73
2022/07/08 09:10:00;;;;;;;9.98;3.28;;;17.90;99.90;;;;;;5089109;28;20283;-73
2022/07/08 09:12:26;;;;;;;;;;;17.90;99.90;;;;;;5060987;28;20048;-73
2022/07/08 09:14:51;;;;;;;12.23;2.70;;;18.00;99.90;;;;;;5059867;28;19920;-73
2022/07/08 09:17:18;;;;;;;13.55;3.15;;;18.00;99.90;;;;;;5067326;28;20399;-73
2022/07/08 09:19:50;;;;;;;9.02;2.53;;;18.10;99.90;;;;;;5089724;28;20059;-73
2022/07/08 09:22:16;;;;;;;14.77;2.90;;;18.20;99.90;;;;;;5077382;28;20051;-76
2022/07/08 09:24:43;;;;;;;9.00;2.78;;;18.20;99.90;;;;;;5067789;28;20130;-75
2022/07/08 09:27:10;;;;;;;13.02;2.80;;;18.20;99.90;;;;;;5070505;28;20061;-77
2022/07/08 09:29:39;;;;;;;8.77;2.65;;;18.30;99.90;;;;;;5052674;28;20174;-76
2022/07/08 09:32:15;;;;;;;9.00;2.75;;;18.30;99.90;;;;;;5070775;28;20052;-79
2022/07/08 09:34:42;;;;;;;9.77;2.80;;;18.30;99.90;;;;;;5070307;28;20173;-75
2022/07/08 09:37:12;;;;;;;13.75;3.17;;;18.30;99.90;;;;;;5073471;28;20048;-74
2022/07/08 09:39:38;;;;;;;11.93;2.63;;;18.50;99.90;;;;;;5076333;28;20040;-74
2022/07/08 09:42:08;;;;;;;9.82;2.60;;;18.60;99.90;;;;;;5081268;28;20056;-76
2022/07/08 09:44:35;;;;;;;9.75;2.70;;;18.70;99.90;;;;;;5067037;28;20491;-74
2022/07/08 09:47:00;;;;;;;11.35;2.70;;;18.70;99.90;;;;;;5072098;28;20133;-74
2022/07/08 09:49:31;;;;;;;10.60;2.55;;;18.70;99.90;;;;;;5066229;28;20082;-74
2022/07/08 09:51:57;;;;;;;11.77;2.75;;;18.80;99.90;;;;;;5077168;28;20234;-75
2022/07/08 09:54:24;;;;;;;12.15;2.70;;;18.80;99.90;;;;;;5054122;28;20041;-74
2022/07/08 09:57:16;;;;;;;9.68;2.83;;;18.90;99.90;;;;;;5070929;28;20036;-75
2022/07/08 09:59:42;;;;;;;8.77;2.53;;;18.90;99.90;;;;;;5077120;28;20063;-74
2022/07/08 10:02:08;;;;;;;13.25;3.28;;;18.90;99.90;;;;;;5058722;28;20040;-74
2022/07/08 10:04:34;;;;;;;10.23;2.87;;;18.90;99.90;;;;;;5076866;28;20079;-79
2022/07/08 10:07:00;;;;;;;8.77;2.75;;;19.00;99.90;;;;;;5068482;28;20415;-77
2022/07/08 10:09:27;;;;;;;8.73;2.67;;;18.90;99.90;;;;;;5074749;28;20151;-74
2022/07/08 10:11:53;;;;;;;14.20;3.15;;;18.90;99.90;;;;;;5090712;28;20118;-76
2022/07/08 10:14:19;;;;;;;10.43;3.13;;;19.00;99.90;;;;;;5063630;28;20517;-74
2022/07/08 10:16:47;;;;;;;10.90;2.90;;;19.00;99.90;;;;;;5074326;28;20175;-74
2022/07/08 10:19:24;;;;;;;10.70;3.13;;;19.10;99.90;;;;;;5060273;28;20044;-75
2022/07/08 10:21:54;;;;;;;9.25;2.75;;;19.10;99.90;;;;;;5080238;28;20115;-75
2022/07/08 10:24:24;;;;;;;9.38;3.10;;;19.00;99.90;;;;;;5078812;28;20123;-76
2022/07/08 10:26:50;;;;;;;10.02;3.38;;;19.00;99.90;;;;;;5082215;28;20104;-80
2022/07/08 10:29:16;;;;;;;8.82;2.90;;;19.00;99.90;;;;;;5075285;28;20397;-77
2022/07/08 10:31:47;;;;;;;9.05;3.20;;;19.10;99.90;;;;;;5050736;28;20499;-73
2022/07/08 10:34:17;;;;;;;14.25;4.00;;;19.10;99.90;;;;;;5070660;28;20046;-76
2022/07/08 10:36:49;;;;;;;12.50;3.50;;;19.20;99.90;;;;;;5064455;28;20059;-75
2022/07/08 10:39:39;;;;;;;10.40;3.60;;;19.20;99.90;;;;;;5076629;28;20082;-74
2022/07/08 10:42:10;;;;;;;9.23;3.03;;;19.30;99.90;;;;;;5087936;28;20106;-75
2022/07/08 10:44:44;;;;;;;9.95;3.50;;;19.30;99.90;;;;;;5060131;28;20048;-74
2022/07/08 10:47:15;;;;;;;10.18;3.70;;;19.30;99.90;;;;;;5071645;28;20511;-80
2022/07/08 10:49:47;;;;;;;10.20;3.42;;;19.30;99.90;;;;;;5080644;28;20072;-76
2022/07/08 10:52:14;;;;;;;10.82;3.40;;;19.40;99.90;;;;;;5087430;28;20044;-76
2022/07/08 10:54:39;;;;;;;12.73;4.63;;;19.40;99.90;;;;;;5072967;28;20050;-76
2022/07/08 10:57:24;;;;;;;9.52;3.45;;;19.40;99.90;;;;;;5078247;28;20491;-73
2022/07/08 11:00:09;;;;;;;13.05;4.13;;;19.40;99.90;;;;;;5061622;28;20068;-73
2022/07/08 11:02:43;;;;;;;10.05;3.42;;;19.40;99.90;;;;;;5085461;28;20051;-72
2022/07/08 11:05:32;;;;;;;8.43;3.30;;;19.40;99.90;;;;;;5073948;28;20048;-72
2022/07/08 11:08:20;;;;;;;10.43;3.35;;;19.50;99.90;;;;;;5076648;28;20126;-73
2022/07/08 11:10:47;;;;;;;11.93;3.50;;;19.60;99.90;;;;;;5066241;28;20048;-71
2022/07/08 11:13:12;;;;;;;18.42;4.15;;;19.60;99.90;;;;;;5087675;28;20036;-74
2022/07/08 11:15:38;;;;;;;11.35;3.38;;;19.70;99.90;;;;;;5069159;28;20552;-73
2022/07/08 11:18:04;;;;;;;9.50;3.22;;;19.80;99.90;;;;;;5076886;28;20051;-73
2022/07/08 11:20:31;;;;;;;8.90;3.78;;;19.90;99.90;;;;;;5086084;28;20084;-73
2022/07/08 11:22:57;;;;;;;10.80;3.72;;;20.10;99.90;;;;;;5085048;28;20051;-73
2022/07/08 11:25:24;;;;;;;10.35;3.67;;;20.20;99.90;;;;;;5082528;28;20043;-73
2022/07/08 11:27:50;;;;;;;12.07;3.43;;;20.20;99.90;;;;;;5083967;28;20036;-73
2022/07/08 11:30:16;;;;;;;11.05;3.17;;;20.40;99.90;;;;;;5080903;28;20036;-74
2022/07/08 11:32:46;;;;;;;7.28;2.67;;;20.50;99.90;;;;;;5083032;28;20032;-73
2022/07/08 11:35:13;;;;;;;9.73;2.92;;;20.60;99.90;;;;;;5081230;28;20032;-73
2022/07/08 11:37:41;;;;;;;9.48;2.90;;;20.60;99.90;;;;;;5082684;28;20536;-73
2022/07/08 11:40:07;;;;;;;9.88;2.90;;;20.70;99.90;;;;;;5086475;28;20475;-73
2022/07/08 11:42:37;;;;;;;7.17;2.73;;;20.70;99.90;;;;;;5069428;28;20499;-73
2022/07/08 11:45:05;;;;;;;8.30;3.00;;;20.80;99.90;;;;;;5054049;28;20059;-73
2022/07/08 11:47:30;;;;;;;9.20;2.72;;;21.00;99.90;;;;;;5064954;28;20044;-73
2022/07/08 11:49:56;;;;;;;7.30;2.70;;;21.20;99.90;;;;;;5077355;28;20092;-72
2022/07/08 11:52:22;;;;;;;11.65;2.80;;;21.30;99.90;;;;;;5083271;28;20406;-73
2022/07/08 11:54:48;;;;;;;6.63;2.50;;;21.50;99.90;;;;;;5078979;28;20032;-73
2022/07/08 11:57:19;;;;;;;8.02;2.80;;;21.60;99.90;;;;;;5060636;28;20048;-73
2022/07/08 11:59:47;;;;;;;8.13;2.80;;;21.70;99.90;;;;;;5074386;28;20532;-73
2022/07/08 12:02:14;;;;;;;8.93;3.00;;;21.80;99.90;;;;;;5082246;28;20044;-71
2022/07/08 12:04:48;;;;;;;7.93;2.95;;;21.90;99.90;;;;;;5069739;28;20044;-72
2022/07/08 12:07:27;;;;;;;8.45;3.03;;;22.10;99.90;;;;;;5079303;28;20039;-71
2022/07/08 12:09:54;;;;;;;8.25;2.75;;;22.20;99.90;;;;;;5072490;28;20491;-71
2022/07/08 12:12:24;;;;;;;8.35;2.85;;;22.20;99.90;;;;;;5080522;28;20048;-71
2022/07/08 12:14:50;;;;;;;9.70;3.00;;;22.20;99.90;;;;;;5084155;28;20079;-72
2022/07/08 12:17:23;;;;;;;8.63;2.88;;;22.10;99.90;;;;;;5081311;28;20059;-72
2022/07/08 12:19:50;;;;;;;6.25;3.08;;;22.00;99.90;;;;;;5088063;28;20100;-72
2022/07/08 12:22:16;;;;;;;7.65;3.03;;;22.10;99.90;;;;;;5084101;28;20127;-73
2022/07/08 12:24:42;;;;;;;9.93;3.22;;;22.00;99.90;;;;;;5071126;28;20169;-73
2022/07/08 12:27:10;;;;;;;8.18;2.72;;;22.00;99.90;;;;;;5072958;28;20047;-73
2022/07/08 12:29:40;;;;;;;8.23;2.85;;;22.10;99.90;;;;;;5072025;28;20044;-72
2022/07/08 12:32:10;;;;;;;9.68;3.78;;;22.00;99.90;;;;;;5073350;28;20177;-72
2022/07/08 12:34:37;;;;;;;10.43;3.88;;;21.90;99.90;;;;;;5088317;28;20399;-73
2022/07/08 12:37:13;;;;;;;10.35;3.33;;;21.80;99.90;;;;;;5077420;28;20048;-78
2022/07/08 12:39:39;;;;;;;10.30;3.25;;;21.70;99.90;;;;;;5068331;28;20058;-76
2022/07/08 12:42:06;;;;;;;8.45;2.90;;;21.80;99.90;;;;;;5059760;28;20573;-86
2022/07/08 12:44:33;;;;;;;8.15;2.83;;;21.90;99.90;;;;;;5060189;28;20586;-84